createdAt,value
2023-02-22T00:18:20.325Z,100.00
2023-02-22T00:20:49.878Z,100.00
2023-02-22T00:23:23.220Z,100.00
2023-02-22T00:25:52.503Z,100.00
2023-02-22T00:28:24.113Z,100.00
2023-02-22T00:30:54.701Z,100.00
2023-02-22T00:33:25.467Z,100.00
2023-02-22T00:35:54.969Z,100.00
2023-02-22T00:38:24.613Z,100.00
2023-02-22T00:40:55.516Z,100.00
2023-02-22T00:43:27.176Z,100.00
2023-02-22T00:45:57.311Z,100.00
2023-02-22T00:48:29.377Z,100.00
2023-02-22T00:50:58.840Z,100.00
2023-02-22T00:53:29.217Z,100.00
2023-02-22T00:55:58.645Z,100.00
2023-02-22T00:58:29.978Z,100.00
2023-02-22T01:01:00.753Z,100.00
2023-02-22T01:03:32.191Z,100.00
2023-02-22T01:06:02.387Z,100.00
2023-02-22T01:08:34.192Z,100.00
2023-02-22T01:11:03.726Z,100.00
2023-02-22T01:13:34.889Z,100.00
2023-02-22T01:16:08.230Z,100.00
2023-02-22T01:18:39.299Z,100.00
2023-02-22T01:21:08.777Z,100.00
2023-02-22T01:23:38.573Z,100.00
2023-02-22T01:26:07.959Z,100.00
2023-02-22T01:28:38.579Z,100.00
2023-02-22T01:31:08.029Z,100.00
2023-02-22T01:33:39.099Z,100.00
2023-02-22T01:36:11.351Z,100.00
2023-02-22T01:38:40.871Z,100.00
2023-02-22T01:41:10.280Z,100.00
2023-02-22T01:43:39.881Z,100.00
2023-02-22T01:46:24.379Z,100.00
2023-02-22T01:49:00.228Z,100.00
2023-02-22T01:51:37.472Z,100.00
2023-02-22T01:54:13.606Z,100.00
2023-02-22T01:57:02.684Z,100.00
2023-02-22T01:59:39.935Z,100.00
2023-02-22T02:02:09.516Z,100.00
2023-02-22T02:04:42.618Z,100.00
2023-02-22T02:07:16.336Z,100.00
2023-02-22T02:09:54.134Z,100.00
2023-02-22T02:12:24.476Z,100.00
2023-02-22T02:14:54.574Z,100.00
2023-02-22T02:17:24.934Z,100.00
2023-02-22T02:20:08.248Z,100.00
2023-02-22T02:22:48.773Z,100.00
2023-02-22T02:25:52.354Z,100.00
2023-02-22T02:29:21.946Z,100.00
2023-02-22T02:32:33.341Z,100.00
2023-02-22T02:35:13.881Z,100.00
2023-02-22T02:37:56.862Z,100.00
2023-02-22T02:40:42.203Z,100.00
2023-02-22T02:43:22.863Z,100.00
2023-02-22T02:46:01.279Z,100.00
2023-02-22T02:48:36.737Z,100.00
2023-02-22T02:51:18.567Z,100.00
2023-02-22T02:53:51.325Z,100.00
2023-02-22T02:56:23.324Z,100.00
2023-02-22T02:58:55.607Z,100.00
2023-02-22T03:01:51.580Z,100.00
2023-02-22T03:04:39.445Z,100.00
2023-02-22T03:07:34.700Z,100.00
2023-02-22T03:10:43.739Z,100.00
2023-02-22T03:13:23.213Z,100.00
2023-02-22T03:16:02.711Z,100.00
2023-02-22T03:18:46.728Z,100.00
2023-02-22T03:21:27.637Z,100.00
2023-02-22T03:24:08.412Z,100.00
2023-02-22T03:26:43.233Z,100.00
2023-02-22T03:29:16.655Z,100.00
2023-02-22T03:31:50.161Z,100.00
2023-02-22T03:34:32.232Z,100.00
2023-02-22T03:37:14.454Z,100.00
2023-02-22T03:39:48.462Z,100.00
2023-02-22T03:42:23.819Z,100.00
2023-02-22T03:44:58.485Z,100.00
2023-02-22T03:47:39.988Z,100.00
2023-02-22T03:50:16.413Z,100.00
2023-02-22T03:52:48.326Z,100.00
2023-02-22T03:55:29.577Z,100.00
2023-02-22T03:58:03.247Z,100.00
2023-02-22T04:00:36.461Z,100.00
2023-02-22T04:03:06.292Z,100.00
2023-02-22T04:05:35.885Z,100.00
2023-02-22T04:08:07.407Z,100.00
2023-02-22T04:10:37.904Z,100.00
2023-02-22T04:13:07.617Z,100.00
2023-02-22T04:15:39.539Z,100.00
2023-02-22T04:18:11.762Z,100.00
2023-02-22T04:20:41.270Z,100.00
2023-02-22T04:23:16.967Z,100.00
2023-02-22T04:25:46.471Z,100.00
2023-02-22T04:28:19.529Z,100.00
2023-02-22T04:30:56.596Z,100.00
2023-02-22T04:33:26.649Z,100.00
2023-02-22T04:35:57.710Z,100.00
2023-02-22T04:38:29.006Z,100.00
2023-02-22T04:41:01.425Z,100.00
2023-02-22T04:43:31.097Z,100.00
2023-02-22T04:46:08.670Z,100.00
2023-02-22T04:48:38.148Z,100.00
2023-02-22T04:51:08.518Z,100.00
2023-02-22T04:53:40.390Z,100.00
2023-02-22T04:56:10.141Z,100.00
2023-02-22T04:58:40.027Z,100.00
2023-02-22T05:01:09.739Z,100.00
2023-02-22T05:03:39.671Z,100.00
2023-02-22T05:06:10.004Z,100.00
2023-02-22T05:08:40.915Z,100.00
2023-02-22T05:11:10.679Z,100.00
2023-02-22T05:13:40.060Z,100.00
2023-02-22T05:16:09.598Z,100.00
2023-02-22T05:18:39.342Z,100.00
2023-02-22T05:21:08.889Z,100.00
2023-02-22T05:23:39.879Z,100.00
2023-02-22T05:26:11.618Z,100.00
2023-02-22T05:28:41.407Z,100.00
2023-02-22T05:31:10.994Z,100.00
2023-02-22T05:33:40.580Z,100.00
2023-02-22T05:36:10.970Z,100.00
2023-02-22T05:38:44.688Z,100.00
2023-02-22T05:41:15.135Z,100.00
2023-02-22T05:43:44.779Z,100.00
2023-02-22T05:46:15.319Z,100.00
2023-02-22T05:48:44.742Z,100.00
2023-02-22T05:51:14.383Z,100.00
2023-02-22T05:53:45.243Z,100.00
2023-02-22T05:56:15.511Z,100.00
2023-02-22T05:58:45.198Z,100.00
2023-02-22T06:01:14.615Z,100.00
2023-02-22T06:03:44.101Z,100.00
2023-02-22T06:06:13.622Z,100.00
2023-02-22T06:08:44.797Z,100.00
2023-02-22T06:11:14.550Z,100.00
2023-02-22T06:13:44.080Z,100.00
2023-02-22T06:16:13.518Z,100.00
2023-02-22T06:18:42.925Z,100.00
2023-02-22T06:21:12.448Z,100.00
2023-02-22T06:23:41.856Z,100.00
2023-02-22T06:26:12.603Z,100.00
2023-02-22T06:28:41.983Z,100.00
2023-02-22T06:31:11.454Z,100.00
2023-02-22T06:33:40.932Z,100.00
2023-02-22T06:36:11.418Z,100.00
2023-02-22T06:38:40.805Z,100.00
2023-02-22T06:41:11.791Z,100.00
2023-02-22T06:43:41.234Z,100.00
2023-02-22T06:46:12.103Z,100.00
2023-02-22T06:48:41.647Z,100.00
2023-02-22T06:51:11.684Z,100.00
2023-02-22T06:53:41.103Z,100.00
2023-02-22T06:56:11.902Z,100.00
2023-02-22T06:58:41.343Z,100.00
2023-02-22T07:01:10.832Z,100.00
2023-02-22T07:03:40.407Z,100.00
2023-02-22T07:06:10.712Z,100.00
2023-02-22T07:08:40.203Z,100.00
2023-02-22T07:11:09.668Z,100.00
2023-02-22T07:13:41.466Z,100.00
2023-02-22T07:16:14.643Z,100.00
2023-02-22T07:18:44.137Z,100.00
2023-02-22T07:21:13.582Z,100.00
2023-02-22T07:23:43.026Z,100.00
2023-02-22T07:26:14.081Z,100.00
2023-02-22T07:28:45.264Z,100.00
2023-02-22T07:31:15.153Z,100.00
2023-02-22T07:33:47.204Z,100.00
2023-02-22T07:36:17.942Z,100.00
2023-02-22T07:38:47.560Z,100.00
2023-02-22T07:41:17.397Z,100.00
2023-02-22T07:43:48.429Z,100.00
2023-02-22T07:46:17.945Z,100.00
2023-02-22T07:48:47.339Z,100.00
2023-02-22T07:51:20.787Z,100.00
2023-02-22T07:53:50.338Z,100.00
2023-02-22T07:56:19.866Z,100.00
2023-02-22T07:58:50.616Z,100.00
2023-02-22T08:01:20.111Z,100.00
2023-02-22T08:03:49.678Z,100.00
2023-02-22T08:06:20.872Z,100.00
2023-02-22T08:08:50.316Z,100.00
2023-02-22T08:11:19.918Z,100.00
2023-02-22T08:13:50.689Z,100.00
2023-02-22T08:16:20.098Z,100.00
2023-02-22T08:18:49.578Z,100.00
2023-02-22T08:21:19.169Z,100.00
2023-02-22T08:23:54.176Z,100.00
2023-02-22T08:26:25.306Z,100.00
2023-02-22T08:28:56.911Z,100.00
2023-02-22T08:31:26.343Z,100.00
2023-02-22T08:33:55.979Z,100.00
2023-02-22T08:36:25.426Z,100.00
2023-02-22T08:38:54.821Z,100.00
2023-02-22T08:41:24.229Z,100.00
2023-02-22T08:43:55.051Z,100.00
2023-02-22T08:46:24.431Z,100.00
2023-02-22T08:48:54.802Z,100.00
2023-02-22T08:51:25.499Z,100.00
2023-02-22T08:53:55.968Z,100.00
2023-02-22T08:56:25.418Z,100.00
2023-02-22T08:58:57.385Z,100.00
2023-02-22T09:01:33.419Z,100.00
2023-02-22T09:04:03.627Z,100.00
2023-02-22T09:06:33.524Z,100.00
2023-02-22T09:09:03.528Z,100.00
2023-02-22T09:11:32.884Z,100.00
2023-02-22T09:14:03.633Z,100.00
2023-02-22T09:16:34.233Z,100.00
2023-02-22T09:19:03.744Z,100.00
2023-02-22T09:21:33.391Z,100.00
2023-02-22T09:24:08.285Z,100.00
2023-02-22T09:26:39.383Z,100.00
2023-02-22T09:29:10.801Z,100.00
2023-02-22T09:31:42.529Z,100.00
2023-02-22T09:34:13.745Z,100.00
2023-02-22T09:36:43.854Z,100.00
2023-02-22T09:39:15.409Z,100.00
2023-02-22T09:41:58.690Z,100.00
2023-02-22T09:44:40.097Z,100.00
2023-02-22T09:47:19.063Z,100.00
2023-02-22T09:49:59.886Z,100.00
2023-02-22T09:52:34.561Z,100.00
2023-02-22T09:55:23.219Z,100.00
2023-02-22T09:57:55.496Z,100.00
2023-02-22T10:00:33.662Z,100.00
2023-02-22T10:03:22.721Z,100.00
2023-02-22T10:06:01.945Z,100.00
2023-02-22T10:08:35.734Z,100.00
2023-02-22T10:11:17.640Z,100.00
2023-02-22T10:14:03.196Z,100.00
2023-02-22T10:16:42.996Z,100.00
2023-02-22T10:19:28.024Z,100.00
2023-02-22T10:22:21.859Z,100.00
2023-02-22T10:25:01.392Z,100.00
2023-02-22T10:27:35.569Z,100.00
2023-02-22T10:30:24.827Z,100.00
2023-02-22T10:33:05.788Z,99.64
2023-02-22T10:35:41.040Z,99.70
2023-02-22T10:38:20.441Z,90.85
2023-02-22T10:40:57.140Z,78.50
2023-02-22T10:43:27.641Z,80.00
2023-02-22T10:46:01.825Z,75.74
2023-02-22T10:48:37.053Z,77.39
2023-02-22T10:51:09.850Z,81.15
2023-02-22T10:53:39.831Z,82.57
2023-02-22T10:56:20.577Z,78.03
2023-02-22T10:58:57.533Z,77.04
2023-02-22T11:01:36.497Z,75.58
2023-02-22T11:04:14.868Z,77.00
2023-02-22T11:06:48.865Z,77.40
2023-02-22T11:09:22.487Z,76.93
2023-02-22T11:12:11.011Z,73.83
2023-02-22T11:14:40.434Z,74.65
2023-02-22T11:17:14.106Z,74.09
2023-02-22T11:19:50.394Z,73.48
2023-02-22T11:22:29.282Z,72.21
2023-02-22T11:25:03.942Z,71.77
2023-02-22T11:27:39.142Z,72.03
2023-02-22T11:30:23.706Z,73.55
2023-02-22T11:32:58.421Z,69.52
2023-02-22T11:35:41.425Z,66.07
2023-02-22T11:38:23.463Z,67.82
2023-02-22T11:41:21.988Z,66.23
2023-02-22T11:43:54.304Z,64.56
2023-02-22T11:46:27.112Z,64.91
2023-02-22T11:49:02.082Z,66.45
2023-02-22T11:52:01.514Z,67.61
2023-02-22T11:54:55.010Z,66.24
2023-02-22T11:57:53.303Z,67.87
2023-02-22T12:00:33.442Z,68.34
2023-02-22T12:03:33.616Z,67.23
2023-02-22T12:06:27.385Z,67.36
2023-02-22T12:09:14.916Z,65.55
2023-02-22T12:12:00.831Z,65.30
2023-02-22T12:14:43.339Z,64.52
2023-02-22T12:17:30.822Z,64.84
2023-02-22T12:20:09.882Z,62.02
2023-02-22T12:23:01.027Z,64.94
2023-02-22T12:25:38.802Z,61.33
2023-02-22T12:28:24.930Z,62.63
2023-02-22T12:31:08.106Z,61.77
2023-02-22T12:33:51.466Z,60.71
2023-02-22T12:36:27.875Z,60.99
2023-02-22T12:39:07.554Z,60.67
2023-02-22T12:41:46.634Z,60.17
2023-02-22T12:44:24.854Z,60.02
2023-02-22T12:46:57.180Z,59.55
2023-02-22T12:49:35.857Z,57.94
2023-02-22T12:52:21.839Z,58.66
2023-02-22T12:55:00.738Z,58.54
2023-02-22T12:57:44.472Z,59.32
2023-02-22T13:00:26.220Z,58.57
2023-02-22T13:03:02.588Z,57.71
2023-02-22T13:05:39.578Z,57.66
2023-02-22T13:08:27.783Z,58.39
2023-02-22T13:11:09.962Z,56.04
2023-02-22T13:13:55.616Z,55.51
2023-02-22T13:16:42.011Z,56.07
2023-02-22T13:19:27.505Z,56.02
2023-02-22T13:22:03.915Z,54.52
2023-02-22T13:24:47.194Z,54.00
2023-02-22T13:27:22.785Z,52.70
2023-02-22T13:29:59.892Z,51.63
2023-02-22T13:32:53.980Z,51.49
2023-02-22T13:36:06.850Z,51.26
2023-02-22T13:39:17.921Z,50.11
2023-02-22T13:42:14.148Z,48.90
2023-02-22T13:45:37.472Z,48.06
2023-02-22T13:48:49.831Z,48.02
2023-02-22T13:51:45.276Z,50.39
2023-02-22T13:54:23.918Z,50.82
2023-02-22T13:56:56.839Z,49.40
2023-02-22T13:59:33.304Z,47.23
2023-02-22T14:02:07.989Z,49.21
2023-02-22T14:04:42.122Z,49.56
2023-02-22T14:07:49.113Z,49.64
2023-02-22T14:10:49.982Z,51.98
2023-02-22T14:13:22.528Z,51.69
2023-02-22T14:16:25.250Z,50.46
2023-02-22T14:19:06.962Z,52.75
2023-02-22T14:21:37.077Z,52.64
2023-02-22T14:24:14.773Z,53.20
2023-02-22T14:26:59.393Z,53.20
2023-02-22T14:29:29.163Z,54.11
2023-02-22T14:32:07.529Z,53.69
2023-02-22T14:34:53.898Z,54.03
2023-02-22T14:37:29.863Z,54.10
2023-02-22T14:40:12.864Z,53.33
2023-02-22T14:42:46.960Z,55.12
2023-02-22T14:45:26.894Z,55.29
2023-02-22T14:48:11.559Z,53.96
2023-02-22T14:50:49.746Z,53.58
2023-02-22T14:53:30.182Z,52.97
2023-02-22T14:56:04.216Z,53.63
2023-02-22T14:58:41.871Z,53.90
2023-02-22T15:02:26.208Z,54.65
2023-02-22T15:04:57.320Z,54.44
2023-02-22T15:07:32.419Z,54.88
2023-02-22T15:10:21.600Z,55.22
2023-02-22T15:13:09.722Z,55.40
2023-02-22T15:15:47.493Z,55.49
2023-02-22T15:18:26.985Z,55.60
2023-02-22T15:21:05.762Z,56.00
2023-02-22T15:23:46.947Z,55.59
2023-02-22T15:26:25.403Z,56.33
2023-02-22T15:28:56.823Z,56.96
2023-02-22T15:31:33.047Z,57.42
2023-02-22T15:34:24.483Z,58.19
2023-02-22T15:36:58.463Z,58.05
2023-02-22T15:39:34.234Z,59.96
2023-02-22T15:42:08.781Z,60.77
2023-02-22T15:44:41.722Z,60.95
2023-02-22T15:47:18.095Z,61.37
2023-02-22T15:49:47.820Z,62.07
2023-02-22T15:52:23.964Z,62.72
2023-02-22T15:54:54.888Z,63.19
2023-02-22T15:57:27.416Z,63.74
2023-02-22T15:59:59.175Z,64.66
2023-02-22T16:02:41.542Z,64.72
2023-02-22T16:05:18.298Z,64.73
2023-02-22T16:07:52.146Z,65.54
2023-02-22T16:10:29.724Z,66.06
2023-02-22T16:13:16.658Z,67.33
2023-02-22T16:16:01.795Z,68.46
2023-02-22T16:18:36.066Z,69.86
2023-02-22T16:21:12.880Z,70.36
2023-02-22T16:23:49.388Z,72.22
2023-02-22T16:27:57.255Z,77.05
2023-02-22T16:30:37.348Z,80.60
2023-02-22T16:33:13.813Z,82.37
2023-02-22T16:35:51.793Z,84.54
2023-02-22T16:38:21.706Z,85.16
2023-02-22T16:40:55.146Z,85.75
2023-02-22T16:43:31.486Z,86.43
2023-02-22T16:46:06.781Z,86.75
2023-02-22T16:48:38.213Z,87.23
2023-02-22T16:51:15.365Z,89.26
2023-02-22T16:53:45.574Z,89.18
2023-02-22T16:56:18.871Z,88.76
2023-02-22T16:58:52.788Z,89.16
2023-02-22T17:01:24.411Z,90.67
2023-02-22T17:03:54.771Z,92.37
2023-02-22T17:06:24.188Z,94.13
2023-02-22T17:08:53.672Z,94.89
2023-02-22T17:11:40.791Z,95.56
2023-02-22T17:14:18.376Z,96.72
2023-02-22T17:16:49.212Z,97.19
2023-02-22T17:19:22.167Z,98.71
2023-02-22T17:21:51.918Z,99.82
2023-02-22T17:24:24.634Z,100.00
2023-02-22T17:26:54.085Z,100.00
2023-02-22T17:29:23.544Z,100.00
2023-02-22T17:31:55.875Z,100.00
2023-02-22T17:34:26.023Z,100.00
2023-02-22T17:36:55.825Z,100.00
2023-02-22T17:39:27.277Z,100.00
2023-02-22T17:41:57.781Z,100.00
2023-02-22T17:44:30.003Z,100.00
2023-02-22T17:47:01.048Z,100.00
2023-02-22T17:49:30.488Z,100.00
2023-02-22T17:51:59.939Z,100.00
2023-02-22T17:54:30.819Z,100.00
2023-02-22T17:57:00.256Z,100.00
2023-02-22T17:59:29.686Z,100.00
2023-02-22T18:02:01.038Z,100.00
2023-02-22T18:04:33.726Z,100.00
2023-02-22T18:07:04.265Z,100.00
2023-02-22T18:09:34.096Z,100.00
2023-02-22T18:12:03.536Z,100.00
2023-02-22T18:14:33.115Z,100.00
2023-02-22T18:17:03.972Z,100.00
2023-02-22T18:19:33.455Z,100.00
2023-02-22T18:22:03.628Z,100.00
2023-02-22T18:24:35.292Z,100.00
2023-02-22T18:27:06.609Z,100.00
2023-02-22T18:29:36.144Z,100.00
2023-02-22T18:32:12.479Z,100.00
2023-02-22T18:35:59.573Z,100.00
2023-02-22T18:38:29.225Z,100.00
2023-02-22T18:41:04.165Z,100.00
2023-02-22T18:43:35.573Z,100.00
2023-02-22T18:46:11.242Z,100.00
2023-02-22T18:48:42.111Z,100.00
2023-02-22T18:51:15.603Z,100.00
2023-02-22T18:53:47.764Z,100.00
2023-02-22T18:56:21.691Z,100.00
2023-02-22T18:58:55.302Z,100.00
2023-02-22T19:01:24.623Z,100.00
2023-02-22T19:03:55.490Z,100.00
2023-02-22T19:06:25.103Z,100.00
2023-02-22T19:08:54.622Z,100.00
2023-02-22T19:11:25.723Z,100.00
2023-02-22T19:13:58.651Z,100.00
2023-02-22T19:16:29.053Z,100.00
2023-02-22T19:19:00.674Z,100.00
2023-02-22T19:21:33.046Z,100.00
2023-02-22T19:24:06.534Z,100.00
2023-02-22T19:26:36.026Z,100.00
2023-02-22T19:29:08.334Z,100.00
2023-02-22T19:31:40.096Z,100.00
2023-02-22T19:34:14.924Z,100.00
2023-02-22T19:36:46.927Z,100.00
2023-02-22T19:39:19.244Z,100.00
2023-02-22T19:41:49.628Z,100.00
2023-02-22T19:44:19.067Z,100.00
2023-02-22T19:46:48.784Z,100.00
2023-02-22T19:49:19.789Z,100.00
2023-02-22T19:51:49.848Z,100.00
2023-02-22T19:54:21.472Z,100.00
2023-02-22T19:56:51.871Z,100.00
2023-02-22T19:59:23.065Z,100.00
2023-02-22T20:01:56.567Z,100.00
2023-02-22T20:04:30.453Z,100.00
2023-02-22T20:06:59.895Z,100.00
2023-02-22T20:09:36.303Z,100.00
2023-02-22T20:12:07.973Z,100.00
2023-02-22T20:14:38.680Z,100.00
2023-02-22T20:17:10.142Z,100.00
2023-02-22T20:19:42.395Z,100.00
2023-02-22T20:22:12.018Z,100.00
2023-02-22T20:24:41.967Z,100.00
2023-02-22T20:27:12.924Z,100.00
2023-02-22T20:29:42.907Z,100.00
2023-02-22T20:32:15.399Z,100.00
2023-02-22T20:34:49.346Z,100.00
2023-02-22T20:37:18.756Z,100.00
2023-02-22T20:39:48.209Z,100.00
2023-02-22T20:42:17.793Z,100.00
2023-02-22T20:44:47.204Z,100.00
2023-02-22T20:47:16.621Z,100.00
2023-02-22T20:49:46.174Z,100.00
2023-02-22T20:52:16.893Z,100.00
2023-02-22T20:54:46.419Z,100.00
2023-02-22T20:57:15.813Z,100.00
2023-02-22T20:59:46.175Z,100.00
2023-02-22T21:02:15.625Z,100.00
2023-02-22T21:04:45.147Z,100.00
2023-02-22T21:07:16.052Z,100.00
2023-02-22T21:09:45.676Z,100.00
2023-02-22T21:12:15.184Z,100.00
2023-02-22T21:14:45.126Z,100.00
2023-02-22T21:17:14.669Z,100.00
2023-02-22T21:19:44.751Z,100.00
2023-02-22T21:22:14.457Z,100.00
2023-02-22T21:24:45.194Z,100.00
2023-02-22T21:27:16.186Z,100.00
2023-02-22T21:29:45.626Z,100.00
2023-02-22T21:32:15.242Z,100.00
2023-02-22T21:34:44.969Z,100.00
2023-02-22T21:37:18.227Z,100.00
2023-02-22T21:39:50.115Z,100.00
2023-02-22T21:42:19.519Z,100.00
2023-02-22T21:44:54.314Z,100.00
2023-02-22T21:47:23.900Z,100.00
2023-02-22T21:49:53.390Z,100.00
2023-02-22T21:52:25.545Z,100.00
2023-02-22T21:54:56.309Z,100.00
2023-02-22T21:57:26.180Z,100.00
2023-02-22T21:59:55.656Z,100.00
2023-02-22T22:02:25.147Z,100.00
2023-02-22T22:04:56.272Z,100.00
2023-02-22T22:07:25.683Z,100.00
2023-02-22T22:09:57.412Z,100.00
2023-02-22T22:12:37.472Z,100.00
2023-02-22T22:15:10.238Z,100.00
2023-02-22T22:17:40.463Z,100.00
2023-02-22T22:20:14.730Z,100.00
2023-02-22T22:22:46.079Z,100.00
2023-02-22T22:25:18.088Z,100.00
2023-02-22T22:27:47.702Z,100.00
2023-02-22T22:30:17.634Z,100.00
2023-02-22T22:32:47.466Z,100.00
2023-02-22T22:35:17.331Z,100.00
2023-02-22T22:37:51.033Z,100.00
2023-02-22T22:40:22.065Z,100.00
2023-02-22T22:42:51.599Z,100.00
2023-02-22T22:45:21.265Z,100.00
2023-02-22T22:47:52.139Z,100.00
2023-02-22T22:50:26.336Z,100.00
2023-02-22T22:52:56.809Z,100.00
2023-02-22T22:55:27.668Z,100.00
2023-02-22T22:57:58.871Z,100.00
2023-02-22T23:00:36.126Z,100.00
2023-02-22T23:03:07.161Z,100.00
2023-02-22T23:05:42.175Z,100.00
2023-02-22T23:08:12.853Z,100.00
2023-02-22T23:10:43.747Z,100.00
2023-02-22T23:13:15.532Z,100.00
2023-02-22T23:15:47.504Z,100.00
2023-02-22T23:18:20.382Z,100.00
2023-02-22T23:20:55.303Z,100.00
2023-02-22T23:23:27.650Z,100.00
2023-02-22T23:26:18.224Z,100.00
2023-02-22T23:28:50.102Z,100.00
2023-02-22T23:31:19.908Z,100.00
2023-02-22T23:33:50.180Z,100.00
2023-02-22T23:36:21.019Z,100.00
2023-02-22T23:38:50.594Z,100.00
2023-02-22T23:41:24.909Z,100.00
2023-02-22T23:43:54.444Z,100.00
2023-02-22T23:46:27.211Z,100.00
2023-02-22T23:49:01.586Z,100.00
2023-02-22T23:51:39.194Z,100.00
2023-02-22T23:54:13.230Z,100.00
2023-02-22T23:56:47.273Z,100.00
2023-02-22T23:59:16.714Z,100.00
